Time;durP1;ratioP1;P1;durP2;ratioP2;P2;SDS_P1;SDS_P2;PMS_P1;PMS_P2;Temp;Humidity;BMP_temperature;BMP_pressure;BME280_temperature;BME280_humidity;BME280_pressure;Samples;Min_cycle;Max_cycle;Signal;HPM_P1;HPM_P2
2021/04/24 00:01:49;;;;;;;12.40;5.53;;;9.30;60.90;;;;;;5024005;28;20128;-75
2021/04/24 00:04:15;;;;;;;11.35;4.90;;;9.30;62.10;;;;;;5016975;28;20116;-77
2021/04/24 00:06:41;;;;;;;10.88;5.47;;;9.80;61.90;;;;;;5045250;28;20057;-74
2021/04/24 00:09:09;;;;;;;11.02;5.63;;;9.20;62.40;;;;;;5031609;28;20045;-76
2021/04/24 00:11:38;;;;;;;10.88;5.72;;;9.20;62.50;;;;;;5009165;28;20021;-76
2021/04/24 00:14:04;;;;;;;13.57;4.85;;;9.20;62.80;;;;;;5037192;28;20547;-77
2021/04/24 00:16:30;;;;;;;10.07;5.32;;;9.20;63.30;;;;;;5026854;28;20109;-77
2021/04/24 00:18:56;;;;;;;11.15;5.03;;;9.10;63.20;;;;;;5029466;27;20118;-76
2021/04/24 00:21:22;;;;;;;10.38;5.15;;;10.10;64.50;;;;;;5023771;28;20034;-77
2021/04/24 00:23:47;;;;;;;10.00;4.88;;;9.10;63.10;;;;;;5007245;28;20457;-76
2021/04/24 00:26:15;;;;;;;12.05;5.75;;;10.90;64.50;;;;;;5003959;28;20038;-75
2021/04/24 00:28:41;;;;;;;9.07;4.68;;;9.00;63.60;;;;;;5035904;28;20026;-77
2021/04/24 00:31:07;;;;;;;11.65;5.50;;;9.00;63.60;;;;;;5024164;28;20051;-75
2021/04/24 00:33:33;;;;;;;8.88;4.53;;;9.00;64.10;;;;;;4995844;28;20030;-77
2021/04/24 00:35:59;;;;;;;9.50;4.50;;;9.00;64.10;;;;;;5026420;28;20034;-77
2021/04/24 00:38:25;;;;;;;17.63;5.60;;;8.30;63.80;;;;;;5012782;28;20028;-76
2021/04/24 00:40:51;;;;;;;9.75;5.07;;;9.00;64.30;;;;;;5021469;28;20634;-78
2021/04/24 00:43:17;;;;;;;11.85;4.85;;;11.50;66.00;;;;;;5023179;28;20475;-75
2021/04/24 00:45:43;;;;;;;9.85;5.20;;;9.00;64.40;;;;;;5010453;27;20030;-79
2021/04/24 00:48:10;;;;;;;13.13;5.40;;;9.10;65.90;;;;;;5027280;27;20018;-79
2021/04/24 00:50:39;;;;;;;11.55;5.10;;;8.80;65.20;;;;;;5031745;27;20021;-76
2021/04/24 00:53:06;;;;;;;8.63;4.55;;;10.40;66.60;;;;;;5043625;27;20032;-77
2021/04/24 00:55:33;;;;;;;9.13;4.28;;;8.80;65.60;;;;;;5035744;27;20748;-76
2021/04/24 00:58:00;;;;;;;9.68;4.85;;;8.90;65.90;;;;;;5016273;28;20036;-76
2021/04/24 01:00:26;;;;;;;10.18;4.90;;;8.50;66.30;;;;;;5013095;28;20041;-78
2021/04/24 01:02:52;;;;;;;9.20;4.40;;;9.90;67.50;;;;;;5019780;28;20045;-76
2021/04/24 01:05:23;;;;;;;11.00;4.10;;;8.60;67.40;;;;;;5006468;28;20063;-78
2021/04/24 01:07:48;;;;;;;8.00;4.78;;;9.70;68.20;;;;;;5015646;27;20024;-78
2021/04/24 01:10:16;;;;;;;11.73;4.85;;;8.50;69.30;;;;;;5041812;27;20033;-77
2021/04/24 01:12:43;;;;;;;9.90;4.55;;;8.70;68.60;;;;;;5012086;28;20155;-78
2021/04/24 01:15:10;;;;;;;12.50;4.75;;;8.40;68.80;;;;;;5018027;28;20033;-77
2021/04/24 01:17:35;;;;;;;7.10;4.10;;;8.40;69.00;;;;;;5029130;27;20055;-77
2021/04/24 01:20:03;;;;;;;10.25;4.75;;;8.30;69.60;;;;;;5034101;27;20441;-75
2021/04/24 01:22:29;;;;;;;9.98;4.85;;;8.30;69.70;;;;;;5088284;27;20030;-74
2021/04/24 01:24:54;;;;;;;12.02;4.43;;;8.30;70.20;;;;;;5033207;27;20064;-77
2021/04/24 01:27:20;;;;;;;10.73;4.97;;;8.30;70.40;;;;;;5014521;28;20433;-79
2021/04/24 01:29:46;;;;;;;8.57;4.13;;;8.30;70.90;;;;;;5005296;28;20029;-77
2021/04/24 01:32:11;;;;;;;8.63;4.55;;;9.60;72.10;;;;;;5012275;28;20037;-77
2021/04/24 01:34:37;;;;;;;9.20;4.80;;;8.30;71.40;;;;;;5014733;28;20029;-77
2021/04/24 01:37:03;;;;;;;12.02;5.03;;;8.90;72.00;;;;;;5010251;28;20033;-77
2021/04/24 01:39:30;;;;;;;8.30;4.40;;;8.20;72.30;;;;;;5028496;27;20094;-79
2021/04/24 01:41:57;;;;;;;7.05;4.45;;;8.10;71.60;;;;;;5016153;27;20029;-78
2021/04/24 01:44:23;;;;;;;10.40;4.53;;;8.10;72.40;;;;;;5011728;28;20026;-77
2021/04/24 01:46:49;;;;;;;9.35;4.68;;;7.80;72.40;;;;;;5027633;27;20025;-75
2021/04/24 01:49:17;;;;;;;9.10;4.50;;;8.30;73.20;;;;;;5025014;27;20055;-79
2021/04/24 01:51:43;;;;;;;12.15;4.75;;;10.70;74.60;;;;;;5023462;27;20014;-76
2021/04/24 01:54:10;;;;;;;11.63;4.93;;;10.50;75.20;;;;;;5042695;27;20056;-76
2021/04/24 01:56:49;;;;;;;10.75;4.30;;;8.10;75.70;;;;;;5008488;28;20403;-78
2021/04/24 01:59:17;;;;;;;9.55;4.75;;;8.10;75.00;;;;;;5021212;27;20338;-78
2021/04/24 02:01:47;;;;;;;9.40;4.55;;;8.00;74.90;;;;;;4999393;28;20424;-77
2021/04/24 02:04:14;;;;;;;9.30;4.20;;;8.00;75.50;;;;;;5034761;28;20076;-77
2021/04/24 02:06:40;;;;;;;8.77;4.40;;;8.00;75.70;;;;;;5015142;28;20054;-77
2021/04/24 02:09:14;;;;;;;10.15;4.60;;;9.10;76.90;;;;;;5023552;27;20033;-76
2021/04/24 02:12:07;;;;;;;11.27;4.72;;;8.30;76.70;;;;;;5027410;28;20412;-76
2021/04/24 02:14:47;;;;;;;9.73;5.40;;;7.90;76.50;;;;;;5005635;28;20034;-76
2021/04/24 02:17:15;;;;;;;10.77;5.28;;;7.90;76.50;;;;;;5028036;28;20021;-76
2021/04/24 02:19:46;;;;;;;12.57;5.38;;;8.70;77.40;;;;;;5021346;28;20094;-78
2021/04/24 02:22:12;;;;;;;12.40;4.75;;;7.90;77.70;;;;;;5024904;27;20060;-76
2021/04/24 02:24:38;;;;;;;11.85;5.22;;;9.90;78.70;;;;;;5021444;28;20029;-76
2021/04/24 02:27:06;;;;;;;11.57;5.72;;;9.70;79.20;;;;;;5014611;28;20033;-76
2021/04/24 02:29:32;;;;;;;10.93;4.68;;;7.70;79.00;;;;;;5024642;27;20029;-74
2021/04/24 02:31:58;;;;;;;9.93;5.03;;;5.50;78.20;;;;;;5030999;27;20150;-79
2021/04/24 02:34:24;;;;;;;11.57;4.78;;;9.80;80.60;;;;;;5007372;28;20050;-74
2021/04/24 02:36:49;;;;;;;9.35;4.60;;;9.90;80.50;;;;;;5008268;28;20701;-78
2021/04/24 02:39:15;;;;;;;10.57;4.55;;;7.70;78.70;;;;;;5011647;28;20021;-76
2021/04/24 02:41:40;;;;;;;10.07;4.75;;;10.00;80.10;;;;;;5024060;27;20163;-77
2021/04/24 02:44:06;;;;;;;8.75;4.40;;;10.20;80.10;;;;;;5026669;28;20034;-76
2021/04/24 02:46:32;;;;;;;9.07;4.43;;;10.30;80.30;;;;;;5019758;27;20096;-77
2021/04/24 02:48:57;;;;;;;10.27;5.07;;;7.70;78.90;;;;;;5034235;27;20038;-76
2021/04/24 02:51:23;;;;;;;10.30;4.95;;;7.70;79.20;;;;;;5031887;27;20030;-77
2021/04/24 02:53:48;;;;;;;10.85;5.35;;;10.50;81.50;;;;;;5030190;28;20041;-76
2021/04/24 02:56:14;;;;;;;11.07;4.82;;;9.30;79.60;;;;;;5005018;28;20090;-77
2021/04/24 02:58:40;;;;;;;10.80;4.90;;;8.50;79.90;;;;;;5012066;28;20120;-77
2021/04/24 03:01:05;;;;;;;9.75;4.97;;;7.60;79.10;;;;;;5006191;27;20034;-77
2021/04/24 03:03:31;;;;;;;13.75;5.00;;;9.10;80.00;;;;;;5033482;27;20029;-75
2021/04/24 03:05:59;;;;;;;8.95;4.90;;;9.20;80.20;;;;;;5021978;28;20215;-77
2021/04/24 03:08:25;;;;;;;10.00;4.43;;;;;;;;;;5009899;28;20053;-75
2021/04/24 03:10:52;;;;;;;9.38;5.55;;;7.80;79.60;;;;;;5087924;27;20057;-76
2021/04/24 03:13:18;;;;;;;10.93;4.95;;;7.70;80.60;;;;;;5008801;28;20049;-77
2021/04/24 03:15:44;;;;;;;8.82;4.72;;;7.70;81.30;;;;;;5025838;27;20057;-77
2021/04/24 03:18:10;;;;;;;12.70;4.75;;;9.40;82.20;;;;;;5028869;28;20571;-77
2021/04/24 03:20:35;;;;;;;14.57;4.45;;;10.40;82.50;;;;;;5046128;27;20033;-78
2021/04/24 03:23:03;;;;;;;10.45;5.15;;;7.60;81.60;;;;;;5036117;28;20393;-74
2021/04/24 03:25:29;;;;;;;11.50;5.50;;;10.40;83.80;;;;;;5043042;27;20019;-76
2021/04/24 03:27:54;;;;;;;7.88;4.22;;;7.60;82.10;;;;;;5037115;28;20087;-78
2021/04/24 03:30:20;;;;;;;8.85;4.88;;;7.40;82.70;;;;;;5011902;28;20018;-76
2021/04/24 03:32:46;;;;;;;10.40;4.93;;;7.60;82.70;;;;;;5016129;28;20036;-78
2021/04/24 03:35:12;;;;;;;9.85;5.20;;;9.20;84.20;;;;;;5031742;28;20029;-79
2021/04/24 03:37:38;;;;;;;10.73;5.10;;;;;;;;;;5007563;28;20142;-77
2021/04/24 03:40:05;;;;;;;9.77;5.20;;;7.50;82.90;;;;;;5010718;28;20033;-78
2021/04/24 03:42:31;;;;;;;11.85;4.90;;;;;;;;;;5065339;28;20033;-77
2021/04/24 03:44:56;;;;;;;8.48;4.45;;;7.40;83.40;;;;;;5026706;28;20030;-76
2021/04/24 03:47:23;;;;;;;14.13;5.53;;;;;;;;;;5022001;28;20616;-78
2021/04/24 03:49:48;;;;;;;11.15;4.97;;;7.40;83.20;;;;;;5029748;28;20036;-76
2021/04/24 03:52:14;;;;;;;9.75;4.60;;;7.30;84.10;;;;;;5018080;28;20030;-77
2021/04/24 03:54:40;;;;;;;9.02;4.80;;;;;;;;;;5043806;28;20659;-78
2021/04/24 03:57:06;;;;;;;12.65;5.28;;;7.30;83.80;;;;;;5024498;28;20067;-79
2021/04/24 03:59:31;;;;;;;9.07;5.55;;;7.20;84.40;;;;;;5032913;28;20045;-77
2021/04/24 04:01:57;;;;;;;10.55;4.97;;;;;;;;;;5009794;28;20060;-77
2021/04/24 04:04:23;;;;;;;10.45;4.88;;;7.20;85.00;;;;;;5035925;28;20026;-78
2021/04/24 04:06:49;;;;;;;12.98;5.30;;;7.80;86.50;;;;;;5025368;28;20033;-77
2021/04/24 04:09:17;;;;;;;13.57;5.47;;;7.10;85.60;;;;;;5038655;28;20035;-78
2021/04/24 04:11:43;;;;;;;11.45;5.38;;;7.10;85.60;;;;;;5027885;28;20051;-76
2021/04/24 04:14:09;;;;;;;14.35;5.32;;;7.30;85.30;;;;;;5042885;28;20040;-77
2021/04/24 04:16:35;;;;;;;12.05;5.50;;;7.20;85.80;;;;;;5086717;28;20034;-77
2021/04/24 04:19:01;;;;;;;12.25;5.43;;;7.20;85.40;;;;;;5048937;28;20040;-76
2021/04/24 04:21:26;;;;;;;10.73;5.65;;;7.10;86.30;;;;;;5036701;28;20037;-78
2021/04/24 04:23:52;;;;;;;13.98;5.57;;;8.50;86.00;;;;;;5064891;27;20445;-76
2021/04/24 04:26:18;;;;;;;12.25;5.07;;;6.90;85.70;;;;;;5022694;27;20070;-77
2021/04/24 04:28:43;;;;;;;11.85;5.50;;;7.10;86.00;;;;;;5026734;28;20059;-76
2021/04/24 04:31:10;;;;;;;12.40;5.47;;;;;;;;;;5051529;27;20057;-77
2021/04/24 04:33:36;;;;;;;10.75;5.25;;;;;;;;;;5030228;28;20029;-74
2021/04/24 04:36:05;;;;;;;13.60;5.38;;;7.10;85.70;;;;;;5054455;27;20033;-78
2021/04/24 04:38:34;;;;;;;10.63;5.32;;;7.20;86.80;;;;;;5042414;27;20037;-78
2021/04/24 04:41:00;;;;;;;11.50;5.35;;;;;;;;;;5034019;27;20086;-76
2021/04/24 04:43:26;;;;;;;12.50;5.60;;;7.20;86.40;;;;;;5049802;28;20044;-79
2021/04/24 04:45:52;;;;;;;10.02;5.40;;;7.10;86.80;;;;;;5033628;28;20025;-77
2021/04/24 04:48:18;;;;;;;10.15;5.35;;;10.00;89.00;;;;;;5027743;27;20036;-77
2021/04/24 04:50:44;;;;;;;14.35;6.40;;;7.30;87.40;;;;;;5035276;27;20020;-75
2021/04/24 04:53:12;;;;;;;10.65;5.47;;;7.30;87.10;;;;;;5024834;28;20042;-76
2021/04/24 04:55:37;;;;;;;14.10;5.65;;;8.60;89.70;;;;;;5056794;27;20138;-76
2021/04/24 04:58:04;;;;;;;12.70;5.57;;;7.40;87.80;;;;;;5037208;28;20325;-75
2021/04/24 05:00:30;;;;;;;12.80;5.35;;;9.60;89.20;;;;;;5062721;27;20436;-76
2021/04/24 05:02:56;;;;;;;10.48;5.20;;;7.40;88.10;;;;;;5036706;27;20026;-77
2021/04/24 05:05:23;;;;;;;18.17;5.75;;;7.20;87.60;;;;;;5027644;27;20037;-77
2021/04/24 05:07:49;;;;;;;10.70;5.45;;;7.40;87.90;;;;;;5038726;27;20037;-77
2021/04/24 05:10:17;;;;;;;13.98;5.90;;;7.40;87.80;;;;;;5021368;28;20025;-77
2021/04/24 05:12:43;;;;;;;12.48;5.50;;;7.50;86.90;;;;;;5034544;28;20120;-77
2021/04/24 05:15:10;;;;;;;17.02;5.88;;;7.50;87.40;;;;;;5029283;27;20067;-76
2021/04/24 05:17:36;;;;;;;17.52;6.85;;;7.50;87.20;;;;;;5047763;27;20030;-76
2021/04/24 05:20:03;;;;;;;13.30;6.05;;;7.60;87.70;;;;;;5037097;28;20049;-75
2021/04/24 05:22:29;;;;;;;12.02;5.22;;;7.60;87.20;;;;;;5040111;28;20121;-76
2021/04/24 05:24:56;;;;;;;15.70;5.88;;;7.60;87.10;;;;;;5033362;27;20145;-77
2021/04/24 05:27:24;;;;;;;15.23;6.60;;;7.70;86.10;;;;;;5068366;28;20028;-77
2021/04/24 05:29:50;;;;;;;13.60;5.78;;;7.70;87.40;;;;;;5030834;27;20032;-77
2021/04/24 05:32:16;;;;;;;13.07;6.10;;;7.80;85.90;;;;;;5025617;28;20068;-76
2021/04/24 05:34:41;;;;;;;15.88;5.75;;;9.40;86.80;;;;;;5025134;28;20069;-76
2021/04/24 05:37:10;;;;;;;13.57;5.90;;;;;;;;;;5012972;28;20022;-76
2021/04/24 05:39:36;;;;;;;15.25;6.05;;;;;;;;;;5033239;27;20030;-75
2021/04/24 05:42:02;;;;;;;13.65;5.53;;;;;;;;;;5041461;27;20048;-77
2021/04/24 05:44:27;;;;;;;13.38;5.45;;;8.10;83.10;;;;;;5101527;27;20029;-77
2021/04/24 05:46:55;;;;;;;11.93;5.65;;;10.80;84.60;;;;;;5017809;28;20034;-77
2021/04/24 05:49:21;;;;;;;13.73;5.90;;;8.20;82.60;;;;;;5034048;28;20084;-77
2021/04/24 05:51:46;;;;;;;11.80;6.00;;;8.30;82.30;;;;;;5035789;28;20052;-77
2021/04/24 05:54:12;;;;;;;13.52;5.90;;;8.40;81.60;;;;;;5038354;28;20077;-77
2021/04/24 05:56:37;;;;;;;13.88;5.40;;;10.70;82.20;;;;;;5044302;28;20025;-75
2021/04/24 05:59:03;;;;;;;10.55;5.85;;;8.80;79.60;;;;;;5040850;27;20028;-77
2021/04/24 06:01:29;;;;;;;11.60;5.55;;;9.00;79.00;;;;;;5018631;28;20053;-75
2021/04/24 06:03:55;;;;;;;9.77;5.10;;;;;;;;;;5036898;27;20044;-77
2021/04/24 06:06:21;;;;;;;12.65;5.50;;;9.10;76.60;;;;;;5014103;28;20133;-79
2021/04/24 06:08:47;;;;;;;11.02;5.45;;;10.60;76.90;;;;;;5033741;27;20033;-76
2021/04/24 06:11:15;;;;;;;12.65;5.32;;;9.40;75.60;;;;;;5039967;28;20045;-76
2021/04/24 06:13:41;;;;;;;11.45;5.63;;;9.50;74.90;;;;;;5033386;28;20507;-77
2021/04/24 06:16:07;;;;;;;11.18;5.22;;;11.10;74.70;;;;;;5037107;28;20103;-76
2021/04/24 06:18:33;;;;;;;11.05;5.40;;;9.60;73.60;;;;;;5037197;28;20319;-76
2021/04/24 06:20:59;;;;;;;12.98;5.47;;;;;;;;;;5054479;28;20029;-76
2021/04/24 06:23:25;;;;;;;10.88;5.68;;;;;;;;;;5097034;27;20030;-80
2021/04/24 06:25:51;;;;;;;11.05;5.15;;;9.80;71.90;;;;;;5019236;28;20116;-76
2021/04/24 06:28:16;;;;;;;10.25;5.43;;;9.90;72.30;;;;;;5037495;28;20038;-75
2021/04/24 06:30:42;;;;;;;11.98;5.75;;;;;;;;;;5098205;27;20034;-77
2021/04/24 06:33:09;;;;;;;14.43;5.10;;;10.20;69.80;;;;;;5053632;27;20053;-77
2021/04/24 06:35:35;;;;;;;12.20;5.78;;;10.20;70.00;;;;;;5030956;28;20917;-78
2021/04/24 06:38:01;;;;;;;12.73;5.22;;;12.00;71.20;;;;;;5048790;27;20051;-77
2021/04/24 06:40:27;;;;;;;11.15;4.93;;;11.50;70.50;;;;;;5040735;27;20053;-78
2021/04/24 06:42:53;;;;;;;15.73;5.35;;;10.40;70.50;;;;;;5014016;28;20500;-77
2021/04/24 06:45:19;;;;;;;10.10;5.00;;;11.80;70.70;;;;;;5006847;28;20025;-76
2021/04/24 06:47:47;;;;;;;10.52;5.63;;;10.10;69.80;;;;;;5013125;28;20613;-77
2021/04/24 06:50:13;;;;;;;12.95;5.38;;;10.30;69.20;;;;;;5019670;27;20098;-78
2021/04/24 06:52:39;;;;;;;11.68;5.35;;;10.30;68.90;;;;;;4997549;28;20033;-80
2021/04/24 06:55:06;;;;;;;10.18;5.68;;;10.30;68.90;;;;;;5069531;27;20033;-75
2021/04/24 06:57:32;;;;;;;10.10;5.78;;;10.50;68.40;;;;;;4993091;28;20022;-76
2021/04/24 06:59:57;;;;;;;14.13;5.15;;;10.70;67.70;;;;;;5006215;28;20069;-76
2021/04/24 07:02:23;;;;;;;10.55;5.47;;;10.80;67.00;;;;;;4996424;27;20113;-77
2021/04/24 07:04:49;;;;;;;13.20;5.10;;;10.80;66.90;;;;;;5016901;27;20037;-78
2021/04/24 07:07:15;;;;;;;9.13;5.55;;;10.70;67.00;;;;;;5022785;27;20027;-77
2021/04/24 07:09:40;;;;;;;9.82;5.00;;;10.80;66.60;;;;;;4997728;27;20030;-79
2021/04/24 07:12:06;;;;;;;13.88;5.45;;;10.90;66.20;;;;;;5020554;27;20033;-77
2021/04/24 07:14:33;;;;;;;10.30;5.45;;;11.00;65.60;;;;;;5072617;27;20121;-77
2021/04/24 07:16:58;;;;;;;10.70;4.93;;;11.10;65.80;;;;;;5055979;27;20089;-75
2021/04/24 07:19:25;;;;;;;10.48;4.90;;;11.20;65.40;;;;;;4998812;28;20495;-77
2021/04/24 07:21:51;;;;;;;10.88;5.20;;;;;;;;;;5014542;28;20112;-77
2021/04/24 07:24:17;;;;;;;9.18;4.45;;;11.50;63.90;;;;;;5082141;28;20059;-75
2021/04/24 07:26:42;;;;;;;10.65;4.88;;;11.60;63.80;;;;;;5000064;28;20063;-80
2021/04/24 07:29:08;;;;;;;9.52;4.78;;;11.90;63.70;;;;;;5012248;27;20034;-77
2021/04/24 07:31:34;;;;;;;10.85;4.95;;;11.90;62.50;;;;;;5009516;28;20038;-77
2021/04/24 07:34:00;;;;;;;9.68;4.60;;;11.90;62.10;;;;;;4994126;28;20046;-75
2021/04/24 07:36:30;;;;;;;11.05;5.35;;;12.00;61.90;;;;;;5022254;27;20033;-76
2021/04/24 07:38:57;;;;;;;10.53;4.63;;;12.00;62.20;;;;;;5018227;28;20033;-79
2021/04/24 07:41:23;;;;;;;14.18;4.97;;;12.10;61.40;;;;;;4999923;28;20124;-76
2021/04/24 07:43:52;;;;;;;11.95;4.88;;;12.20;61.30;;;;;;5012375;28;20121;-76
2021/04/24 07:46:19;;;;;;;8.90;5.15;;;15.00;62.60;;;;;;4994526;28;20211;-76
2021/04/24 07:48:44;;;;;;;11.27;4.82;;;12.90;61.50;;;;;;5001172;28;20040;-77
2021/04/24 07:51:10;;;;;;;11.38;4.53;;;;;;;;;;5033095;28;20026;-80
2021/04/24 07:53:36;;;;;;;9.65;4.90;;;12.60;59.10;;;;;;5078661;28;20033;-75
2021/04/24 07:56:03;;;;;;;8.98;4.53;;;13.60;60.00;;;;;;5027042;27;20034;-75
2021/04/24 07:58:31;;;;;;;10.57;4.70;;;12.90;58.80;;;;;;5077993;28;20034;-78
2021/04/24 08:00:57;;;;;;;10.50;4.03;;;13.30;58.60;;;;;;5036995;27;20031;-76
2021/04/24 08:03:23;;;;;;;8.85;4.53;;;13.20;58.00;;;;;;5000669;28;20062;-81
2021/04/24 08:05:48;;;;;;;9.40;4.57;;;15.10;59.20;;;;;;5010205;28;20030;-79
2021/04/24 08:08:14;;;;;;;11.18;4.45;;;13.60;57.00;;;;;;5011736;28;20074;-78
2021/04/24 08:10:40;;;;;;;8.82;4.65;;;13.60;56.70;;;;;;5029564;27;20098;-77
2021/04/24 08:13:06;;;;;;;8.90;4.40;;;15.30;56.70;;;;;;5019929;27;20025;-77
2021/04/24 08:15:34;;;;;;;10.05;4.85;;;13.90;55.90;;;;;;5000813;27;20509;-77
2021/04/24 08:18:00;;;;;;;9.93;4.75;;;14.10;54.80;;;;;;5013561;28;20036;-79
2021/04/24 08:20:26;;;;;;;10.27;5.07;;;14.20;54.50;;;;;;5021407;28;20289;-80
2021/04/24 08:22:52;;;;;;;7.80;4.30;;;14.20;53.90;;;;;;5013886;28;20030;-77
2021/04/24 08:25:19;;;;;;;8.95;4.35;;;14.30;53.40;;;;;;5003302;27;20030;-77
2021/04/24 08:27:44;;;;;;;11.43;4.18;;;14.40;52.50;;;;;;5008817;27;20085;-78
2021/04/24 08:30:13;;;;;;;10.70;4.00;;;14.40;52.10;;;;;;5015112;27;20539;-77
2021/04/24 08:32:40;;;;;;;8.60;4.13;;;14.60;52.10;;;;;;5019289;28;20025;-80
2021/04/24 08:35:06;;;;;;;12.05;4.03;;;14.70;51.60;;;;;;5015730;28;20083;-79
2021/04/24 08:37:32;;;;;;;10.93;4.35;;;14.80;51.30;;;;;;5015919;27;20026;-78
2021/04/24 08:40:00;;;;;;;7.30;4.20;;;17.20;53.70;;;;;;5012529;27;20046;-78
2021/04/24 08:42:27;;;;;;;9.07;4.35;;;15.00;51.30;;;;;;4991844;28;20080;-79
2021/04/24 08:44:53;;;;;;;9.73;4.80;;;15.20;51.20;;;;;;5013570;27;20036;-77
2021/04/24 08:47:23;;;;;;;6.72;4.07;;;15.20;49.60;;;;;;5017904;27;20033;-76
2021/04/24 08:49:54;;;;;;;9.10;4.50;;;15.40;49.30;;;;;;4997909;27;20030;-77
2021/04/24 08:52:21;;;;;;;14.40;4.43;;;15.50;48.90;;;;;;5012001;28;20051;-80
2021/04/24 08:54:47;;;;;;;6.03;3.40;;;15.60;48.10;;;;;;4997996;28;20094;-77
2021/04/24 08:57:13;;;;;;;8.45;4.40;;;15.80;48.80;;;;;;5013192;27;21715;-77
2021/04/24 08:59:39;;;;;;;9.02;4.40;;;15.90;47.70;;;;;;5012048;28;20018;-82
2021/04/24 09:02:05;;;;;;;10.43;4.53;;;16.30;47.50;;;;;;5041419;27;20047;-77
2021/04/24 09:04:30;;;;;;;8.80;4.07;;;16.20;46.90;;;;;;5019710;27;20041;-80
2021/04/24 09:06:58;;;;;;;9.38;4.25;;;16.50;46.30;;;;;;5010252;28;20021;-80
2021/04/24 09:09:27;;;;;;;8.40;3.90;;;16.50;46.00;;;;;;5073563;28;20055;-80
2021/04/24 09:12:01;;;;;;;7.05;3.45;;;16.60;45.60;;;;;;5025356;27;20480;-80
2021/04/24 09:14:29;;;;;;;8.90;3.92;;;16.70;45.60;;;;;;5006473;28;20430;-79
2021/04/24 09:16:55;;;;;;;9.05;3.90;;;16.60;44.20;;;;;;5027046;27;23537;-78
2021/04/24 09:19:47;;;;;;;10.75;4.22;;;16.50;44.60;;;;;;5028359;27;20150;-79
2021/04/24 09:22:20;;;;;;;11.30;4.25;;;16.70;44.10;;;;;;5034983;27;20411;-79
2021/04/24 09:24:56;;;;;;;9.52;4.50;;;16.60;44.30;;;;;;5008239;28;20040;-78
2021/04/24 09:27:48;;;;;;;9.45;3.97;;;16.50;43.30;;;;;;5009091;28;21269;-78
2021/04/24 09:30:27;;;;;;;9.13;4.22;;;16.60;44.60;;;;;;5027597;27;20036;-79
2021/04/24 09:32:53;;;;;;;9.18;4.13;;;16.80;44.20;;;;;;5010086;28;20025;-80
2021/04/24 09:35:20;;;;;;;11.98;4.57;;;17.00;44.20;;;;;;5011391;28;20037;-81
2021/04/24 09:38:00;;;;;;;9.10;4.10;;;17.20;42.60;;;;;;5024112;28;20323;-78
2021/04/24 09:40:26;;;;;;;8.93;4.50;;;17.30;42.10;;;;;;5029534;27;20025;-79
2021/04/24 09:43:02;;;;;;;11.90;6.80;;;17.30;41.80;;;;;;5014480;28;20049;-80
2021/04/24 09:45:40;;;;;;;13.15;5.80;;;17.30;42.10;;;;;;5008592;27;20026;-81
2021/04/24 09:48:22;;;;;;;9.98;5.03;;;17.40;42.00;;;;;;5022304;28;20479;-83
2021/04/24 09:50:47;;;;;;;8.10;4.22;;;17.10;42.20;;;;;;5021422;28;20026;-78
2021/04/24 09:53:21;;;;;;;8.98;4.82;;;17.20;41.90;;;;;;5025606;27;20515;-80
2021/04/24 09:55:48;;;;;;;13.23;5.00;;;17.40;42.10;;;;;;5015088;28;20017;-77
2021/04/24 09:58:33;;;;;;;7.47;4.47;;;17.70;41.90;;;;;;5025544;28;20034;-81
2021/04/24 10:01:19;;;;;;;8.85;4.60;;;17.80;41.60;;;;;;5008640;28;20522;-80
2021/04/24 10:03:45;;;;;;;8.65;4.68;;;17.90;41.30;;;;;;5017655;28;20068;-79
2021/04/24 10:06:34;;;;;;;11.38;5.10;;;18.10;40.70;;;;;;5011102;28;20050;-79
2021/04/24 10:09:23;;;;;;;9.82;4.90;;;18.30;40.00;;;;;;5019945;28;20659;-75
2021/04/24 10:12:00;;;;;;;8.32;4.88;;;18.40;40.50;;;;;;5037617;27;20062;-78
2021/04/24 10:14:34;;;;;;;10.60;4.78;;;18.50;39.70;;;;;;5089630;27;20049;-80
2021/04/24 10:17:03;;;;;;;10.52;5.30;;;18.40;39.70;;;;;;5009740;28;20083;-80
2021/04/24 10:19:31;;;;;;;11.70;6.05;;;18.20;39.50;;;;;;5027185;27;20066;-78
2021/04/24 10:21:57;;;;;;;13.23;5.65;;;18.40;39.70;;;;;;5088307;27;20049;-79
2021/04/24 10:24:24;;;;;;;10.30;6.70;;;18.50;40.20;;;;;;5007893;28;20021;-82
2021/04/24 10:26:50;;;;;;;8.85;5.00;;;18.50;40.40;;;;;;5029628;27;20468;-77
2021/04/24 10:29:17;;;;;;;17.15;5.35;;;18.60;39.40;;;;;;5010637;28;20025;-79
2021/04/24 10:31:46;;;;;;;11.40;5.55;;;18.50;39.90;;;;;;5030117;27;20021;-80
2021/04/24 10:34:13;;;;;;;12.02;5.15;;;18.50;39.80;;;;;;5026138;28;20033;-76
2021/04/24 10:36:39;;;;;;;9.10;5.25;;;18.70;39.90;;;;;;5024536;27;20045;-79
2021/04/24 10:39:26;;;;;;;11.40;5.50;;;18.90;39.50;;;;;;5011368;28;20024;-78
2021/04/24 10:42:03;;;;;;;11.13;5.60;;;19.30;38.80;;;;;;5001605;28;20033;-82
2021/04/24 10:44:47;;;;;;;10.75;4.80;;;19.00;38.40;;;;;;5001488;28;20060;-78
2021/04/24 10:47:13;;;;;;;9.65;5.40;;;18.90;38.00;;;;;;4998162;28;20026;-78
2021/04/24 10:49:56;;;;;;;7.15;4.65;;;18.90;37.90;;;;;;5010394;28;20018;-77
2021/04/24 10:52:24;;;;;;;8.65;5.18;;;18.90;38.20;;;;;;5023254;28;20033;-79
2021/04/24 10:55:12;;;;;;;9.63;5.18;;;19.20;37.80;;;;;;5037077;27;20045;-81
2021/04/24 10:57:38;;;;;;;11.60;5.07;;;19.40;37.80;;;;;;5020973;28;20029;-78
2021/04/24 11:00:14;;;;;;;9.90;4.65;;;19.40;37.60;;;;;;5024130;28;20037;-79
2021/04/24 11:02:50;;;;;;;8.60;4.63;;;19.60;36.60;;;;;;5005216;28;20049;-81
2021/04/24 11:05:19;;;;;;;7.80;4.47;;;19.80;35.90;;;;;;5014230;28;20116;-79
2021/04/24 11:07:47;;;;;;;11.77;5.30;;;20.10;35.60;;;;;;5029783;27;20379;-81
2021/04/24 11:10:13;;;;;;;11.38;5.05;;;20.10;35.00;;;;;;5066587;28;20095;-80
2021/04/24 11:12:47;;;;;;;10.45;4.90;;;19.80;34.90;;;;;;5038129;27;20061;-79
2021/04/24 11:15:19;;;;;;;11.27;5.45;;;19.80;35.60;;;;;;5012320;27;20052;-79
2021/04/24 11:17:45;;;;;;;9.98;5.60;;;19.90;35.20;;;;;;5030262;27;20077;-79
2021/04/24 11:20:12;;;;;;;11.80;5.45;;;19.70;34.60;;;;;;5004015;28;20369;-80
2021/04/24 11:22:42;;;;;;;9.45;5.20;;;19.40;34.90;;;;;;5018227;27;20113;-79
2021/04/24 11:25:29;;;;;;;9.90;4.90;;;19.60;35.00;;;;;;5008917;28;20933;-77
2021/04/24 11:28:13;;;;;;;9.68;5.20;;;19.60;35.60;;;;;;5035228;27;20053;-78
2021/04/24 11:30:57;;;;;;;9.38;4.88;;;19.50;34.40;;;;;;5003851;28;20026;-76
2021/04/24 11:33:47;;;;;;;10.70;4.90;;;19.80;34.00;;;;;;5024193;28;20030;-78
2021/04/24 11:36:21;;;;;;;12.15;5.20;;;19.80;34.60;;;;;;5018701;28;20122;-81
2021/04/24 11:38:56;;;;;;;9.15;4.80;;;19.80;34.60;;;;;;5011088;28;20021;-79
2021/04/24 11:41:45;;;;;;;13.68;4.72;;;20.00;34.50;;;;;;5008095;28;20057;-80
2021/04/24 11:44:24;;;;;;;8.80;4.82;;;20.40;34.60;;;;;;5001077;28;20564;-77
2021/04/24 11:46:54;;;;;;;11.93;5.38;;;20.40;33.10;;;;;;5019557;28;20033;-79
2021/04/24 11:49:22;;;;;;;;;;;20.50;33.70;;;;;;5050055;28;20014;-78
2021/04/24 11:51:57;;;;;;;10.27;4.53;;;20.60;34.50;;;;;;5022238;28;19921;-79
2021/04/24 11:54:38;;;;;;;8.55;4.78;;;20.70;33.60;;;;;;5027522;28;20187;-76
2021/04/24 11:57:05;;;;;;;8.98;4.60;;;20.70;31.80;;;;;;5028087;28;20025;-79
2021/04/24 11:59:33;;;;;;;10.10;4.75;;;20.60;32.10;;;;;;5094314;28;20097;-80
2021/04/24 12:02:02;;;;;;;11.77;4.50;;;20.80;32.40;;;;;;5006076;28;20033;-80
2021/04/24 12:04:36;;;;;;;9.82;4.43;;;20.90;32.20;;;;;;5032862;28;20512;-76
2021/04/24 12:07:13;;;;;;;10.80;4.53;;;20.60;31.60;;;;;;5016584;28;20025;-77
2021/04/24 12:09:52;;;;;;;9.65;4.28;;;20.70;31.50;;;;;;5080620;28;20041;-80
2021/04/24 12:12:34;;;;;;;7.30;4.63;;;20.60;32.30;;;;;;5031480;27;20051;-77
2021/04/24 12:15:11;;;;;;;11.00;5.32;;;20.80;32.00;;;;;;5026931;28;20101;-79
2021/04/24 12:17:57;;;;;;;14.82;5.38;;;20.60;32.30;;;;;;5007490;28;20021;-79
2021/04/24 12:20:27;;;;;;;8.02;4.20;;;20.60;32.60;;;;;;5033205;28;20032;-80
2021/04/24 12:22:54;;;;;;;12.15;4.35;;;20.80;32.30;;;;;;5009221;28;20134;-80
2021/04/24 12:25:25;;;;;;;39.13;24.77;;;21.10;32.30;;;;;;5027057;28;20032;-78
2021/04/24 12:27:51;;;;;;;;;;;21.80;32.30;;;;;;5014060;28;20041;-79
2021/04/24 12:30:22;;;;;;;9.52;4.90;;;21.40;30.70;;;;;;5072459;28;19909;-77
2021/04/24 12:32:51;;;;;;;8.20;4.70;;;21.30;31.00;;;;;;5046016;28;20029;-79
2021/04/24 12:35:28;;;;;;;9.63;5.40;;;21.20;30.60;;;;;;5014579;28;20036;-79
2021/04/24 12:38:04;;;;;;;11.65;5.00;;;21.10;31.40;;;;;;5034770;28;20059;-79
2021/04/24 12:40:33;;;;;;;7.22;4.45;;;21.10;32.50;;;;;;5008371;28;20040;-80
2021/04/24 12:43:15;;;;;;;8.47;4.17;;;21.20;31.30;;;;;;5014532;28;20038;-78
2021/04/24 12:45:43;;;;;;;9.25;4.95;;;21.50;30.40;;;;;;5079183;27;20064;-79
2021/04/24 12:48:21;;;;;;;15.00;5.28;;;21.40;30.10;;;;;;5044414;27;20042;-78
2021/04/24 12:50:53;;;;;;;7.55;4.40;;;21.30;30.50;;;;;;5034510;27;20717;-76
2021/04/24 12:53:31;;;;;;;8.35;4.50;;;21.30;30.20;;;;;;5024156;28;20112;-79
2021/04/24 12:56:06;;;;;;;9.90;4.65;;;21.20;30.60;;;;;;5014553;28;20026;-79
2021/04/24 12:58:36;;;;;;;8.73;3.80;;;21.20;30.20;;;;;;5011983;28;20064;-78